createdAt,value
2022-12-17T00:01:32.895Z,25.58
2022-12-17T00:03:59.549Z,25.63
2022-12-17T00:06:26.127Z,25.42
2022-12-17T00:08:52.930Z,27.00
2022-12-17T00:11:19.383Z,24.92
2022-12-17T00:13:45.863Z,24.50
2022-12-17T00:16:12.508Z,30.98
2022-12-17T00:18:39.058Z,24.00
2022-12-17T00:21:06.267Z,27.50
2022-12-17T00:23:32.859Z,25.70
2022-12-17T00:25:59.439Z,26.98
2022-12-17T00:28:25.889Z,24.63
2022-12-17T00:30:52.887Z,25.88
2022-12-17T00:33:19.741Z,27.17
2022-12-17T00:35:54.318Z,21.80
2022-12-17T00:38:23.316Z,19.15
2022-12-17T00:40:51.615Z,19.45
2022-12-17T00:43:18.599Z,20.58
2022-12-17T00:45:45.667Z,21.48
2022-12-17T00:48:12.178Z,20.10
2022-12-17T00:50:41.014Z,20.98
2022-12-17T00:53:07.483Z,20.27
2022-12-17T00:55:34.214Z,21.75
2022-12-17T00:58:00.819Z,22.52
2022-12-17T01:00:27.433Z,19.98
2022-12-17T01:02:54.064Z,20.52
2022-12-17T01:05:20.680Z,20.50
2022-12-17T01:07:47.356Z,27.63
2022-12-17T01:10:13.816Z,21.02
2022-12-17T01:12:40.281Z,23.25
2022-12-17T01:15:07.021Z,23.02
2022-12-17T01:17:33.618Z,21.23
2022-12-17T01:20:00.197Z,22.42
2022-12-17T01:22:27.528Z,22.92
2022-12-17T01:24:54.146Z,24.10
2022-12-17T01:27:22.705Z,20.85
2022-12-17T01:29:49.280Z,21.10
2022-12-17T01:32:16.209Z,24.58
2022-12-17T01:34:42.685Z,22.27
2022-12-17T01:37:09.159Z,21.00
2022-12-17T01:39:35.678Z,22.45
2022-12-17T01:42:02.384Z,18.50
2022-12-17T01:44:50.275Z,22.80
2022-12-17T01:47:17.565Z,21.75
2022-12-17T01:49:44.099Z,19.67
2022-12-17T01:52:12.555Z,21.27
2022-12-17T01:54:39.691Z,22.45
2022-12-17T01:57:06.946Z,21.42
2022-12-17T01:59:46.399Z,21.52
2022-12-17T02:02:12.922Z,22.67
2022-12-17T02:04:39.785Z,20.25
2022-12-17T02:07:12.324Z,22.83
2022-12-17T02:09:47.104Z,21.23
2022-12-17T02:12:25.873Z,21.67
2022-12-17T02:15:07.129Z,19.58
2022-12-17T02:17:40.570Z,20.27
2022-12-17T02:20:30.596Z,18.05
2022-12-17T02:23:25.286Z,17.52
2022-12-17T02:25:55.291Z,19.23
2022-12-17T02:28:22.053Z,19.98
2022-12-17T02:30:48.633Z,19.52
2022-12-17T02:33:15.575Z,20.40
2022-12-17T02:35:49.600Z,19.80
2022-12-17T02:38:24.682Z,21.90
2022-12-17T02:40:51.231Z,18.60
2022-12-17T02:43:19.282Z,20.70
2022-12-17T02:45:46.547Z,19.60
2022-12-17T02:48:13.202Z,22.80
2022-12-17T02:50:39.714Z,23.65
2022-12-17T02:53:06.905Z,21.92
2022-12-17T02:55:34.591Z,22.10
2022-12-17T02:58:01.022Z,22.63
2022-12-17T03:00:27.619Z,23.08
2022-12-17T03:02:54.380Z,22.88
2022-12-17T03:05:44.019Z,20.75
2022-12-17T03:08:07.556Z,23.15
2022-12-17T03:10:34.016Z,25.73
2022-12-17T03:13:00.631Z,25.80
2022-12-17T03:15:27.212Z,26.92
2022-12-17T03:17:54.426Z,27.85
2022-12-17T03:20:22.256Z,29.63
2022-12-17T03:22:48.748Z,26.98
2022-12-17T03:25:15.489Z,27.80
2022-12-17T03:27:41.958Z,31.38
2022-12-17T03:30:08.994Z,29.25
2022-12-17T03:32:35.449Z,31.38
2022-12-17T03:35:01.948Z,29.33
2022-12-17T03:37:28.811Z,29.67
2022-12-17T03:39:55.357Z,31.67
2022-12-17T03:42:21.837Z,32.00
2022-12-17T03:44:48.324Z,30.70
2022-12-17T03:47:15.067Z,32.55
2022-12-17T03:49:41.621Z,33.17
2022-12-17T03:52:08.627Z,32.83
2022-12-17T03:54:35.479Z,32.55
2022-12-17T03:57:01.927Z,34.40
2022-12-17T03:59:28.464Z,33.75
2022-12-17T04:01:55.241Z,31.02
2022-12-17T04:04:21.753Z,31.77
2022-12-17T04:06:48.478Z,31.88
2022-12-17T04:09:14.952Z,31.83
2022-12-17T04:11:41.538Z,33.65
2022-12-17T04:14:27.966Z,32.72
2022-12-17T04:17:01.787Z,30.83
2022-12-17T04:19:38.238Z,31.60
2022-12-17T04:22:05.313Z,33.38
2022-12-17T04:24:31.762Z,32.10
2022-12-17T04:26:58.688Z,34.20
2022-12-17T04:29:25.509Z,31.45
2022-12-17T04:31:52.171Z,34.13
2022-12-17T04:34:18.667Z,36.22
2022-12-17T04:36:45.325Z,35.92
2022-12-17T04:39:11.826Z,36.60
2022-12-17T04:41:38.277Z,35.78
2022-12-17T04:44:04.770Z,35.35
2022-12-17T04:46:31.749Z,39.92
2022-12-17T04:48:58.454Z,35.35
2022-12-17T04:51:25.313Z,36.75
2022-12-17T04:53:51.875Z,38.88
2022-12-17T04:56:18.364Z,35.80
2022-12-17T04:58:44.814Z,41.42
2022-12-17T05:01:11.463Z,37.45
2022-12-17T05:03:38.312Z,39.83
2022-12-17T05:06:05.319Z,37.40
2022-12-17T05:08:34.570Z,37.97
2022-12-17T05:11:04.459Z,39.13
2022-12-17T05:13:30.962Z,36.40
2022-12-17T05:15:57.860Z,37.47
2022-12-17T05:18:24.415Z,40.75
2022-12-17T05:20:50.944Z,36.63
2022-12-17T05:23:18.733Z,38.95
2022-12-17T05:25:45.234Z,41.67
2022-12-17T05:28:11.691Z,39.47
2022-12-17T05:30:38.213Z,38.60
2022-12-17T05:33:04.694Z,38.33
2022-12-17T05:35:31.183Z,39.75
2022-12-17T05:38:04.039Z,45.08
2022-12-17T05:40:30.530Z,42.00
2022-12-17T05:43:01.744Z,42.55
2022-12-17T05:45:28.535Z,41.33
2022-12-17T05:47:58.151Z,41.13
2022-12-17T05:50:24.674Z,43.33
2022-12-17T05:52:51.134Z,42.35
2022-12-17T05:55:19.396Z,43.05
2022-12-17T05:57:49.409Z,43.45
2022-12-17T06:00:18.188Z,44.22
2022-12-17T06:02:44.898Z,44.00
2022-12-17T06:05:11.743Z,40.90
2022-12-17T06:07:38.223Z,46.53
2022-12-17T06:10:05.054Z,46.38
2022-12-17T06:12:31.531Z,41.38
2022-12-17T06:14:57.991Z,38.83
2022-12-17T06:17:24.490Z,43.67
2022-12-17T06:19:50.951Z,44.78
2022-12-17T06:22:17.763Z,43.13
2022-12-17T06:24:46.138Z,45.60
2022-12-17T06:27:13.104Z,43.95
2022-12-17T06:29:39.692Z,43.90
2022-12-17T06:32:06.229Z,46.22
2022-12-17T06:34:32.805Z,44.30
2022-12-17T06:36:59.295Z,42.75
2022-12-17T06:39:25.767Z,41.22
2022-12-17T06:41:52.234Z,42.42
2022-12-17T06:44:18.955Z,41.13
2022-12-17T06:46:45.481Z,44.58
2022-12-17T06:49:12.074Z,42.92
2022-12-17T06:51:38.582Z,42.38
2022-12-17T06:54:05.088Z,45.55
2022-12-17T06:56:31.595Z,43.67
2022-12-17T06:58:58.119Z,44.33
2022-12-17T07:01:24.729Z,42.70
2022-12-17T07:03:51.310Z,42.50
2022-12-17T07:06:17.759Z,44.78
2022-12-17T07:08:44.270Z,40.47
2022-12-17T07:11:10.840Z,44.33
2022-12-17T07:13:37.595Z,43.72
2022-12-17T07:16:04.391Z,40.63
2022-12-17T07:18:30.941Z,37.75
2022-12-17T07:20:57.476Z,41.35
2022-12-17T07:23:23.933Z,37.13
2022-12-17T07:25:50.884Z,40.40
2022-12-17T07:28:17.360Z,37.45
2022-12-17T07:30:43.840Z,40.97
2022-12-17T07:33:10.977Z,42.45
2022-12-17T07:35:37.782Z,42.60
2022-12-17T07:38:05.250Z,42.97
2022-12-17T07:40:31.860Z,39.17
2022-12-17T07:42:58.602Z,41.15
2022-12-17T07:45:25.336Z,36.67
2022-12-17T07:47:53.253Z,42.70
2022-12-17T07:50:19.907Z,42.25
2022-12-17T07:52:46.450Z,41.00
2022-12-17T07:55:17.937Z,42.00
2022-12-17T07:57:44.746Z,47.55
2022-12-17T08:00:12.204Z,42.60
2022-12-17T08:02:38.942Z,47.85
2022-12-17T08:05:06.156Z,46.40
2022-12-17T08:07:32.987Z,44.50
2022-12-17T08:09:59.438Z,41.15
2022-12-17T08:12:25.915Z,41.83
2022-12-17T08:14:55.261Z,42.55
2022-12-17T08:17:21.838Z,44.85
2022-12-17T08:19:48.500Z,40.45
2022-12-17T08:22:14.986Z,39.88
2022-12-17T08:24:41.538Z,40.53
2022-12-17T08:27:08.038Z,40.80
2022-12-17T08:29:34.519Z,42.95
2022-12-17T08:32:01.005Z,43.42
2022-12-17T08:34:27.523Z,39.70
2022-12-17T08:36:54.097Z,42.20
2022-12-17T08:39:20.591Z,43.42
2022-12-17T08:41:52.657Z,46.35
2022-12-17T08:44:20.960Z,42.63
2022-12-17T08:46:47.498Z,42.45
2022-12-17T08:49:13.999Z,38.40
2022-12-17T08:51:40.459Z,42.25
2022-12-17T08:54:07.053Z,41.20
2022-12-17T08:56:33.537Z,42.08
2022-12-17T08:59:00.088Z,38.55
2022-12-17T09:01:26.651Z,38.85
2022-12-17T09:03:53.193Z,38.67
2022-12-17T09:06:19.651Z,37.70
2022-12-17T09:08:46.365Z,37.42
2022-12-17T09:11:12.975Z,34.55
2022-12-17T09:13:39.665Z,34.80
2022-12-17T09:16:06.506Z,33.70
2022-12-17T09:18:33.004Z,32.55
2022-12-17T09:20:59.491Z,35.30
2022-12-17T09:23:26.043Z,37.15
2022-12-17T09:25:58.093Z,36.97
2022-12-17T09:28:24.951Z,34.50
2022-12-17T09:30:52.180Z,37.03
2022-12-17T09:33:18.907Z,36.83
2022-12-17T09:35:45.452Z,35.40
2022-12-17T09:38:12.761Z,32.42
2022-12-17T09:40:40.121Z,33.50
2022-12-17T09:43:19.822Z,37.45
2022-12-17T09:46:03.322Z,36.85
2022-12-17T09:48:37.478Z,36.75
2022-12-17T09:51:04.637Z,37.33
2022-12-17T09:53:39.090Z,37.10
2022-12-17T09:56:06.875Z,37.85
2022-12-17T09:58:36.268Z,35.25
2022-12-17T10:01:03.035Z,36.20
2022-12-17T10:03:29.864Z,35.20
2022-12-17T10:05:57.531Z,35.97
2022-12-17T10:08:23.983Z,34.63
2022-12-17T10:10:50.446Z,36.88
2022-12-17T10:13:21.419Z,37.75
2022-12-17T10:15:47.992Z,35.60
2022-12-17T10:18:15.114Z,33.35
2022-12-17T10:20:55.573Z,30.38
2022-12-17T10:23:26.967Z,32.40
2022-12-17T10:25:55.534Z,34.03
2022-12-17T10:28:24.199Z,32.90
2022-12-17T10:30:51.032Z,35.78
2022-12-17T10:33:21.013Z,34.33
2022-12-17T10:35:47.535Z,32.72
2022-12-17T10:38:24.905Z,34.45
2022-12-17T10:40:51.607Z,32.20
2022-12-17T10:43:26.611Z,33.28
2022-12-17T10:45:54.789Z,35.85
2022-12-17T10:48:26.614Z,32.13
2022-12-17T10:50:53.153Z,31.65
2022-12-17T10:53:21.654Z,31.80
2022-12-17T10:55:50.817Z,31.02
2022-12-17T10:58:26.238Z,32.47
2022-12-17T11:01:02.302Z,32.45
2022-12-17T11:03:36.722Z,33.25
2022-12-17T11:06:03.564Z,34.22
2022-12-17T11:08:31.163Z,32.38
2022-12-17T11:11:00.030Z,35.25
2022-12-17T11:13:33.447Z,32.08
2022-12-17T11:16:00.499Z,30.98
2022-12-17T11:18:54.191Z,31.80
2022-12-17T11:21:30.122Z,29.25
2022-12-17T11:23:57.655Z,30.80
2022-12-17T11:26:25.204Z,30.30
2022-12-17T11:28:51.843Z,32.05
2022-12-17T11:31:18.346Z,30.23
2022-12-17T11:33:57.107Z,31.88
2022-12-17T11:36:39.208Z,30.10
2022-12-17T11:39:14.489Z,32.80
2022-12-17T11:41:58.199Z,28.75
2022-12-17T11:44:40.716Z,27.92
2022-12-17T11:47:12.568Z,33.20
2022-12-17T11:49:48.770Z,32.10
2022-12-17T11:52:24.456Z,30.23
2022-12-17T11:55:11.889Z,30.73
2022-12-17T11:58:11.877Z,33.75
2022-12-17T12:01:07.490Z,31.80
2022-12-17T12:03:48.261Z,34.10
2022-12-17T12:06:23.577Z,31.73
2022-12-17T12:09:02.346Z,30.40
2022-12-17T12:11:39.026Z,30.77
2022-12-17T12:14:18.588Z,32.42
2022-12-17T12:17:01.107Z,30.65
2022-12-17T12:19:42.146Z,30.17
2022-12-17T12:22:31.732Z,32.20
2022-12-17T12:25:16.361Z,31.35
2022-12-17T12:28:08.704Z,28.27
2022-12-17T12:30:42.740Z,30.50
2022-12-17T12:33:24.596Z,31.02
2022-12-17T12:35:53.014Z,32.25
2022-12-17T12:38:27.020Z,30.90
2022-12-17T12:40:59.610Z,31.40
2022-12-17T12:43:31.432Z,27.85
2022-12-17T12:46:21.565Z,34.25
2022-12-17T12:49:05.131Z,30.13
2022-12-17T12:51:35.535Z,34.10
2022-12-17T12:54:21.695Z,36.00
2022-12-17T12:56:48.181Z,34.65
2022-12-17T12:59:34.954Z,33.40
2022-12-17T13:02:14.107Z,31.75
2022-12-17T13:04:42.722Z,32.03
2022-12-17T13:07:27.388Z,32.97
2022-12-17T13:09:56.776Z,31.20
2022-12-17T13:12:44.432Z,32.88
2022-12-17T13:15:18.811Z,30.98
2022-12-17T13:18:00.470Z,31.00
2022-12-17T13:20:30.053Z,31.83
2022-12-17T13:23:11.691Z,33.50
2022-12-17T13:25:38.215Z,30.00
2022-12-17T13:28:05.434Z,33.47
2022-12-17T13:30:38.584Z,31.63
2022-12-17T13:33:32.695Z,30.38
2022-12-17T13:36:44.145Z,28.38
2022-12-17T13:39:38.306Z,30.50
2022-12-17T13:42:05.145Z,30.40
2022-12-17T13:44:44.577Z,32.95
2022-12-17T13:47:21.482Z,29.42
2022-12-17T13:50:31.630Z,30.85
2022-12-17T13:52:42.320Z,31.17
2022-12-17T13:55:18.067Z,27.80
2022-12-17T13:57:45.894Z,30.48
2022-12-17T14:00:24.018Z,31.75
2022-12-17T14:02:51.432Z,33.30
2022-12-17T14:05:24.579Z,30.75
2022-12-17T14:07:51.573Z,30.88
2022-12-17T14:10:18.590Z,29.55
2022-12-17T14:12:45.296Z,31.13
2022-12-17T14:15:24.820Z,31.83
2022-12-17T14:17:51.985Z,28.38
2022-12-17T14:20:24.496Z,30.20
2022-12-17T14:22:54.436Z,32.67
2022-12-17T14:25:29.801Z,31.15
2022-12-17T14:28:01.462Z,33.70
2022-12-17T14:30:43.019Z,30.25
2022-12-17T14:33:32.466Z,27.05
2022-12-17T14:36:01.043Z,29.25
2022-12-17T14:38:37.866Z,28.48
2022-12-17T14:41:13.192Z,32.95
2022-12-17T14:43:39.659Z,28.63
2022-12-17T14:46:06.534Z,30.58
2022-12-17T14:48:33.220Z,30.27
2022-12-17T14:50:59.726Z,34.13
2022-12-17T14:53:27.736Z,30.30
2022-12-17T14:55:59.221Z,35.50
2022-12-17T14:58:27.025Z,31.08
2022-12-17T15:00:59.492Z,29.35
2022-12-17T15:03:32.288Z,35.13
2022-12-17T15:06:01.324Z,33.53
2022-12-17T15:08:32.042Z,31.45
2022-12-17T15:10:58.579Z,34.63
2022-12-17T15:13:25.077Z,35.88
2022-12-17T15:15:55.068Z,35.65
2022-12-17T15:18:24.067Z,33.45
2022-12-17T15:20:50.547Z,36.33
2022-12-17T15:23:19.902Z,35.50
2022-12-17T15:25:47.938Z,35.38
2022-12-17T15:28:14.735Z,35.40
2022-12-17T15:30:41.294Z,37.72
2022-12-17T15:33:08.479Z,37.88
2022-12-17T15:35:35.032Z,40.80
2022-12-17T15:38:01.718Z,32.90
2022-12-17T15:40:28.267Z,36.58
2022-12-17T15:42:54.758Z,39.67
2022-12-17T15:45:21.284Z,37.97
2022-12-17T15:47:47.810Z,50.40
2022-12-17T15:50:16.962Z,39.13
2022-12-17T15:52:43.498Z,39.40
2022-12-17T15:55:10.217Z,39.67
2022-12-17T15:57:38.046Z,40.85
2022-12-17T16:00:05.448Z,41.30
2022-12-17T16:02:32.088Z,46.63
2022-12-17T16:04:58.890Z,41.08
2022-12-17T16:07:25.346Z,42.80
2022-12-17T16:09:51.865Z,44.63
2022-12-17T16:12:19.493Z,39.22
2022-12-17T16:14:45.981Z,45.40
2022-12-17T16:17:12.476Z,39.08
2022-12-17T16:19:39.038Z,45.17
2022-12-17T16:22:05.659Z,42.63
2022-12-17T16:24:32.179Z,44.90
2022-12-17T16:27:04.385Z,40.63
2022-12-17T16:29:31.378Z,45.08
2022-12-17T16:31:57.900Z,41.40
2022-12-17T16:34:24.537Z,40.83
2022-12-17T16:36:51.349Z,43.97
2022-12-17T16:39:19.436Z,40.05
2022-12-17T16:41:46.273Z,44.15
2022-12-17T16:44:13.140Z,40.75
2022-12-17T16:46:41.776Z,47.45
2022-12-17T16:49:19.923Z,39.58
2022-12-17T16:51:49.164Z,42.88
2022-12-17T16:54:21.078Z,43.63
2022-12-17T16:56:48.237Z,40.75
2022-12-17T16:59:15.982Z,39.83
2022-12-17T17:01:44.246Z,40.80
2022-12-17T17:04:14.942Z,48.10
2022-12-17T17:06:43.884Z,41.10
2022-12-17T17:09:11.012Z,42.42
2022-12-17T17:11:37.881Z,47.67
2022-12-17T17:14:07.655Z,42.45
2022-12-17T17:16:34.422Z,43.28
2022-12-17T17:19:01.588Z,40.53
2022-12-17T17:21:52.578Z,40.05
2022-12-17T17:24:21.764Z,41.75
2022-12-17T17:26:49.511Z,41.58
2022-12-17T17:29:16.289Z,40.00
2022-12-17T17:34:29.299Z,50.08
2022-12-17T17:36:55.773Z,47.58
2022-12-17T17:39:22.229Z,40.38
2022-12-17T17:41:48.700Z,45.58
2022-12-17T17:44:15.261Z,58.42
2022-12-17T17:46:41.901Z,39.05
2022-12-17T17:49:09.256Z,39.58
2022-12-17T17:54:24.873Z,38.42
2022-12-17T17:56:51.493Z,40.20
2022-12-17T17:59:18.225Z,43.03
2022-12-17T18:01:47.937Z,44.92
2022-12-17T18:04:17.144Z,44.20
2022-12-17T18:07:02.766Z,42.42
2022-12-17T18:09:31.312Z,59.47
2022-12-17T18:11:57.916Z,45.67
2022-12-17T18:14:24.670Z,43.42
2022-12-17T18:16:51.178Z,55.55
2022-12-17T18:19:19.845Z,45.72
2022-12-17T18:21:46.936Z,43.35
2022-12-17T18:24:18.807Z,45.70
2022-12-17T18:26:46.694Z,45.30
2022-12-17T18:29:19.966Z,42.10
2022-12-17T18:31:51.542Z,43.03
2022-12-17T18:34:20.771Z,42.55
2022-12-17T18:36:47.859Z,45.25
2022-12-17T18:39:16.912Z,43.88
2022-12-17T18:41:43.964Z,42.80
2022-12-17T18:44:11.531Z,46.10
2022-12-17T18:46:38.411Z,43.72
2022-12-17T18:49:07.579Z,45.75
2022-12-17T18:51:35.514Z,43.75
2022-12-17T18:54:03.109Z,52.22
2022-12-17T18:56:59.480Z,45.03
2022-12-17T18:59:18.874Z,47.25
2022-12-17T19:01:46.491Z,43.88
2022-12-17T19:04:15.040Z,49.25
2022-12-17T19:06:42.954Z,46.28
2022-12-17T19:09:17.775Z,43.97
2022-12-17T19:11:44.307Z,48.65
2022-12-17T19:14:10.847Z,44.35
2022-12-17T19:16:37.676Z,42.78
2022-12-17T19:19:05.167Z,46.33
2022-12-17T19:21:33.090Z,44.30
2022-12-17T19:24:03.969Z,42.30
2022-12-17T19:26:30.830Z,44.67
2022-12-17T19:28:58.788Z,46.63
2022-12-17T19:31:27.656Z,38.38
2022-12-17T19:33:55.392Z,41.63
2022-12-17T19:36:28.041Z,43.58
2022-12-17T19:38:56.907Z,44.35
2022-12-17T19:41:24.011Z,44.88
2022-12-17T19:43:56.159Z,101.38
2022-12-17T19:46:23.560Z,65.53
2022-12-17T19:48:51.252Z,62.25
2022-12-17T19:51:22.894Z,40.92
2022-12-17T19:53:50.035Z,44.90
2022-12-17T19:56:20.459Z,43.08
2022-12-17T19:58:49.751Z,40.53
2022-12-17T20:01:19.030Z,41.90
2022-12-17T20:03:46.268Z,41.75
2022-12-17T20:06:14.114Z,43.42
2022-12-17T20:08:40.887Z,45.90
2022-12-17T20:11:09.505Z,41.10
2022-12-17T20:13:36.010Z,43.25
2022-12-17T20:16:03.959Z,42.95
2022-12-17T20:18:30.635Z,46.33
2022-12-17T20:21:04.073Z,41.30
2022-12-17T20:23:31.320Z,40.50
2022-12-17T20:26:05.124Z,43.28
2022-12-17T20:28:32.092Z,41.08
2022-12-17T20:30:58.590Z,42.53
2022-12-17T20:33:25.159Z,43.25
2022-12-17T20:35:51.711Z,43.97
2022-12-17T20:38:18.273Z,45.30
2022-12-17T20:40:44.790Z,45.42
2022-12-17T20:43:11.477Z,48.38
2022-12-17T20:45:38.060Z,47.88
2022-12-17T20:48:04.895Z,43.95
2022-12-17T20:50:31.395Z,41.45
2022-12-17T20:52:57.968Z,42.63
2022-12-17T20:55:30.757Z,40.95
2022-12-17T20:57:57.875Z,40.45
2022-12-17T21:00:24.609Z,44.20
2022-12-17T21:02:51.233Z,43.65
2022-12-17T21:05:17.868Z,41.05
2022-12-17T21:07:44.920Z,43.10
2022-12-17T21:10:12.201Z,45.17
2022-12-17T21:12:38.731Z,42.97
2022-12-17T21:15:05.631Z,43.42
2022-12-17T21:17:32.107Z,45.30
2022-12-17T21:20:02.932Z,47.45
2022-12-17T21:22:32.701Z,42.75
2022-12-17T21:24:59.186Z,43.90
2022-12-17T21:27:25.659Z,37.67
2022-12-17T21:29:53.244Z,47.47
2022-12-17T21:32:19.893Z,43.60
2022-12-17T21:34:46.646Z,45.83
2022-12-17T21:37:13.187Z,43.25
2022-12-17T21:39:39.690Z,47.13
2022-12-17T21:42:06.170Z,39.72
2022-12-17T21:44:32.647Z,43.85
2022-12-17T21:46:59.207Z,39.55
2022-12-17T21:49:25.738Z,43.50
2022-12-17T21:51:52.504Z,44.65
2022-12-17T21:54:19.950Z,40.35
2022-12-17T21:56:47.086Z,43.45
2022-12-17T21:59:13.568Z,41.17
2022-12-17T22:01:40.259Z,48.45
2022-12-17T22:04:06.904Z,43.17
2022-12-17T22:06:38.070Z,42.58
2022-12-17T22:09:29.687Z,42.05
2022-12-17T22:11:56.836Z,43.40
2022-12-17T22:14:23.399Z,43.92
2022-12-17T22:16:49.991Z,39.88
2022-12-17T22:19:19.030Z,41.05
2022-12-17T22:21:49.930Z,45.45
2022-12-17T22:24:19.480Z,43.50
2022-12-17T22:26:46.115Z,46.00
2022-12-17T22:29:12.856Z,40.75
2022-12-17T22:31:39.366Z,40.40
2022-12-17T22:35:01.822Z,43.03
2022-12-17T22:39:22.214Z,46.33
2022-12-17T22:42:47.543Z,43.30
2022-12-17T22:44:44.417Z,38.65
2022-12-17T22:45:14.464Z,38.33
2022-12-17T22:47:41.456Z,41.45
2022-12-17T22:50:08.200Z,41.33
2022-12-17T22:52:35.350Z,40.30
2022-12-17T22:55:02.231Z,38.22
2022-12-17T22:57:36.601Z,37.42
2022-12-17T23:00:31.723Z,38.58
2022-12-17T23:02:58.389Z,38.50
2022-12-17T23:05:26.508Z,40.65
2022-12-17T23:07:53.314Z,39.78
2022-12-17T23:10:21.073Z,41.47
2022-12-17T23:12:48.008Z,43.42
2022-12-17T23:15:14.544Z,42.78
2022-12-17T23:17:41.056Z,39.28
2022-12-17T23:20:08.115Z,40.20
2022-12-17T23:22:34.558Z,41.28
2022-12-17T23:25:01.085Z,39.33
2022-12-17T23:27:27.574Z,43.25
2022-12-17T23:29:54.491Z,45.65
2022-12-17T23:32:21.147Z,42.60
2022-12-17T23:34:47.599Z,43.83
2022-12-17T23:37:14.128Z,38.20
2022-12-17T23:39:40.663Z,41.42
2022-12-17T23:42:07.287Z,42.63
2022-12-17T23:44:33.756Z,44.42
2022-12-17T23:47:00.332Z,38.30
2022-12-17T23:49:26.874Z,42.03
2022-12-17T23:51:53.363Z,38.95
2022-12-17T23:54:19.906Z,45.78
2022-12-17T23:56:46.443Z,39.33
2022-12-17T23:59:16.166Z,39.83
